CCA351 ZYHB-RCTP
Flight info
| Callsign | CCA351 |
|---|---|
| Flight time | N/A |
| Altitude | FL070 |
| Route | DUK18D DUKIR W655 ENPEN W658 LEMOT A588 CHI W107 SANKO A326 MIGOL B591 KASKA L2 BERBA B576 BAKER BAKE1B |
| Aircraft | B789/H-CHLRTWZ/CB1D1 |
Departure
| Time | 2026-04-22 11:12 |
|---|---|
| Airport | Harbin Taiping International Airport (ZYHB) |
Arrival
| Time | N/A |
|---|---|
| Airport | Taiwan Taoyuan International Airport (RCTP) |
| Time | Latitude | Longitude | Altitude | Speed | Heading |
|---|---|---|---|---|---|
| 2026-04-22 11:10 | 45.63618 | 126.26373 | 470 ft | 0 kts | 170° |
| 2026-04-22 11:10 | 45.63604 | 126.26376 | 470 ft | 5 kts | 170° |
| 2026-04-22 11:10 | 45.63554 | 126.26385 | 470 ft | 9 kts | 178° |
| 2026-04-22 11:10 | 45.63484 | 126.26360 | 470 ft | 12 kts | 210° |
| 2026-04-22 11:11 | 45.63406 | 126.26277 | 470 ft | 28 kts | 219° |
| 2026-04-22 11:11 | 45.63022 | 126.25829 | 470 ft | 112 kts | 219° |
| 2026-04-22 11:11 | 45.62237 | 126.24918 | 471 ft | 176 kts | 219° |
| 2026-04-22 11:11 | 45.61233 | 126.23753 | 888 ft | 182 kts | 219° |
| 2026-04-22 11:12 | 45.60285 | 126.22648 | 1836 ft | 170 kts | 223° |
| 2026-04-22 11:12 | 45.59356 | 126.21598 | 2493 ft | 173 kts | 226° |
| 2026-04-22 11:12 | 45.58421 | 126.20484 | 2815 ft | 180 kts | 227° |
| 2026-04-22 11:12 | 45.57418 | 126.19283 | 3124 ft | 196 kts | 227° |
| 2026-04-22 11:13 | 45.56336 | 126.17999 | 3430 ft | 209 kts | 227° |
| 2026-04-22 11:13 | 45.55186 | 126.16645 | 3693 ft | 220 kts | 226° |
| 2026-04-22 11:13 | 45.53974 | 126.15224 | 3923 ft | 233 kts | 226° |
| 2026-04-22 11:13 | 45.52675 | 126.13701 | 4240 ft | 249 kts | 225° |
| 2026-04-22 11:14 | 45.51318 | 126.12122 | 4817 ft | 255 kts | 225° |
| 2026-04-22 11:14 | 45.49471 | 126.09975 | 5634 ft | 259 kts | 225° |
| 2026-04-22 11:14 | 45.48070 | 126.08348 | 6264 ft | 261 kts | 225° |
| 2026-04-22 11:14 | 45.47133 | 126.07260 | 6679 ft | 262 kts | 225° |
| 2026-04-22 11:15 | 45.45718 | 126.05616 | 7283 ft | 263 kts | 225° |
| 2026-04-22 11:15 | 45.44294 | 126.03964 | 7852 ft | 265 kts | 225° |
| 2026-04-22 11:15 | 45.42861 | 126.02299 | 8388 ft | 268 kts | 225° |
| 2026-04-22 11:15 | 45.41414 | 126.00619 | 8914 ft | 270 kts | 225° |
| 2026-04-22 11:16 | 45.39954 | 125.98926 | 9416 ft | 273 kts | 225° |
| 2026-04-22 11:16 | 45.38482 | 125.97222 | 9914 ft | 275 kts | 225° |
| 2026-04-22 11:16 | 45.36948 | 125.95545 | 10247 ft | 287 kts | 221° |
| 2026-04-22 11:16 | 45.35009 | 125.94455 | 10272 ft | 317 kts | 199° |
| 2026-04-22 11:17 | 45.32749 | 125.94354 | 10517 ft | 333 kts | 184° |
| 2026-04-22 11:17 | 45.30401 | 125.94538 | 10721 ft | 345 kts | 181° |
| 2026-04-22 11:17 | 45.27970 | 125.94683 | 10878 ft | 356 kts | 182° |
| 2026-04-22 11:17 | 45.25458 | 125.94754 | 11068 ft | 366 kts | 184° |
| 2026-04-22 11:18 | 45.22891 | 125.94782 | 11303 ft | 374 kts | 184° |
| 2026-04-22 11:18 | 45.20274 | 125.94784 | 11584 ft | 379 kts | 185° |
| 2026-04-22 11:18 | 45.17623 | 125.94773 | 11899 ft | 384 kts | 185° |
| 2026-04-22 11:18 | 45.14945 | 125.94754 | 12238 ft | 387 kts | 185° |
| 2026-04-22 11:19 | 45.12243 | 125.94734 | 12589 ft | 390 kts | 185° |
| 2026-04-22 11:19 | 45.09528 | 125.94709 | 12959 ft | 393 kts | 185° |
| 2026-04-22 11:19 | 45.05878 | 125.94676 | 13438 ft | 396 kts | 185° |
| 2026-04-22 11:19 | 45.04051 | 125.94659 | 13680 ft | 397 kts | 185° |
| 2026-04-22 11:20 | 45.01277 | 125.94633 | 14045 ft | 399 kts | 185° |
| 2026-04-22 11:20 | 44.98499 | 125.94607 | 14402 ft | 401 kts | 185° |
| 2026-04-22 11:20 | 44.95706 | 125.94583 | 14749 ft | 403 kts | 186° |
| 2026-04-22 11:20 | 44.92897 | 125.94561 | 15056 ft | 407 kts | 187° |
| 2026-04-22 11:21 | 44.90049 | 125.94543 | 15262 ft | 414 kts | 187° |
| 2026-04-22 11:21 | 44.87153 | 125.94512 | 15537 ft | 419 kts | 188° |
| 2026-04-22 11:21 | 44.84230 | 125.94479 | 15849 ft | 423 kts | 188° |
| 2026-04-22 11:21 | 44.81284 | 125.94451 | 16187 ft | 425 kts | 188° |
| 2026-04-22 11:22 | 44.78324 | 125.94423 | 16557 ft | 427 kts | 188° |
| 2026-04-22 11:22 | 44.75355 | 125.94391 | 16938 ft | 428 kts | 188° |
| 2026-04-22 11:22 | 44.72414 | 125.94084 | 17300 ft | 423 kts | 194° |
| 2026-04-22 11:22 | 44.69512 | 125.93487 | 17667 ft | 423 kts | 197° |
| 2026-04-22 11:23 | 44.66612 | 125.92804 | 17979 ft | 425 kts | 198° |
| 2026-04-22 11:23 | 44.63684 | 125.92105 | 18283 ft | 429 kts | 198° |
| 2026-04-22 11:23 | 44.60735 | 125.91419 | 18598 ft | 432 kts | 198° |
| 2026-04-22 11:23 | 44.57776 | 125.90750 | 18935 ft | 434 kts | 198° |
| 2026-04-22 11:24 | 44.54787 | 125.90089 | 19296 ft | 436 kts | 198° |
| 2026-04-22 11:24 | 44.51785 | 125.89431 | 19649 ft | 438 kts | 198° |
| 2026-04-22 11:24 | 44.48777 | 125.88774 | 19984 ft | 440 kts | 198° |
| 2026-04-22 11:24 | 44.45758 | 125.88115 | 20296 ft | 442 kts | 198° |
| 2026-04-22 11:25 | 44.42709 | 125.87449 | 20604 ft | 445 kts | 198° |
| 2026-04-22 11:25 | 44.39666 | 125.86786 | 20916 ft | 447 kts | 198° |
| 2026-04-22 11:25 | 44.36573 | 125.86112 | 21234 ft | 449 kts | 198° |
| 2026-04-22 11:25 | 44.33485 | 125.85441 | 21556 ft | 451 kts | 198° |
| 2026-04-22 11:26 | 44.31070 | 125.84921 | 21921 ft | 449 kts | 198° |
| 2026-04-22 11:26 | 44.28412 | 125.84348 | 22300 ft | 448 kts | 198° |
| 2026-04-22 11:26 | 44.25338 | 125.83683 | 22687 ft | 448 kts | 198° |
| 2026-04-22 11:26 | 44.22263 | 125.83015 | 23046 ft | 448 kts | 198° |
| 2026-04-22 11:27 | 44.19178 | 125.82345 | 23342 ft | 451 kts | 198° |
| 2026-04-22 11:27 | 44.16075 | 125.81670 | 23594 ft | 454 kts | 198° |
| 2026-04-22 11:27 | 44.12923 | 125.81105 | 23858 ft | 462 kts | 195° |
| 2026-04-22 11:27 | 44.09712 | 125.80777 | 24179 ft | 466 kts | 193° |
| 2026-04-22 11:28 | 44.06465 | 125.80554 | 24519 ft | 469 kts | 192° |
| 2026-04-22 11:28 | 44.03206 | 125.80416 | 24861 ft | 471 kts | 191° |
| 2026-04-22 11:28 | 43.99921 | 125.80333 | 25181 ft | 474 kts | 190° |
| 2026-04-22 11:28 | 43.96637 | 125.80279 | 25481 ft | 476 kts | 190° |
| 2026-04-22 11:29 | 43.93309 | 125.80235 | 25771 ft | 478 kts | 190° |
| 2026-04-22 11:29 | 43.88872 | 125.80182 | 26153 ft | 481 kts | 190° |
| 2026-04-22 11:29 | 43.86643 | 125.80154 | 26350 ft | 482 kts | 190° |
| 2026-04-22 11:29 | 43.83343 | 125.79838 | 26594 ft | 472 kts | 198° |
| 2026-04-22 11:30 | 43.80212 | 125.78739 | 26880 ft | 456 kts | 209° |
| 2026-04-22 11:30 | 43.77341 | 125.77043 | 27292 ft | 446 kts | 216° |
| 2026-04-22 11:30 | 43.73678 | 125.74471 | 27676 ft | 444 kts | 219° |
| 2026-04-22 11:30 | 43.71865 | 125.73135 | 27818 ft | 445 kts | 219° |
| 2026-04-22 11:31 | 43.69132 | 125.71104 | 28047 ft | 448 kts | 219° |
| 2026-04-22 11:31 | 43.66381 | 125.69069 | 28319 ft | 450 kts | 219° |
| 2026-04-22 11:31 | 43.63629 | 125.67047 | 28629 ft | 450 kts | 219° |
| 2026-04-22 11:31 | 43.60860 | 125.65025 | 28949 ft | 451 kts | 219° |
| 2026-04-22 11:32 | 43.58091 | 125.63010 | 29240 ft | 451 kts | 219° |
| 2026-04-22 11:32 | 43.55310 | 125.61007 | 29489 ft | 453 kts | 219° |
| 2026-04-22 11:32 | 43.52503 | 125.59003 | 29700 ft | 456 kts | 219° |
| 2026-04-22 11:32 | 43.49684 | 125.56996 | 29915 ft | 459 kts | 218° |
| 2026-04-22 11:33 | 43.46850 | 125.54981 | 30135 ft | 461 kts | 218° |
| 2026-04-22 11:33 | 43.44000 | 125.52960 | 30372 ft | 463 kts | 218° |
| 2026-04-22 11:33 | 43.41133 | 125.50933 | 30631 ft | 465 kts | 218° |
| 2026-04-22 11:33 | 43.38261 | 125.48903 | 30897 ft | 466 kts | 218° |
| 2026-04-22 11:34 | 43.35378 | 125.46867 | 31156 ft | 467 kts | 218° |
| 2026-04-22 11:34 | 43.32484 | 125.44827 | 31394 ft | 469 kts | 218° |
| 2026-04-22 11:34 | 43.28610 | 125.42104 | 31779 ft | 470 kts | 218° |
| 2026-04-22 11:34 | 43.26685 | 125.40749 | 32000 ft | 470 kts | 217° |
| 2026-04-22 11:35 | 43.23777 | 125.38702 | 32340 ft | 469 kts | 217° |
| 2026-04-22 11:35 | 43.20881 | 125.36666 | 32676 ft | 469 kts | 217° |
| 2026-04-22 11:35 | 43.17983 | 125.34632 | 33004 ft | 468 kts | 217° |
| 2026-04-22 11:35 | 43.15088 | 125.32602 | 33339 ft | 467 kts | 217° |
| 2026-04-22 11:36 | 43.12208 | 125.30586 | 33660 ft | 467 kts | 217° |
| 2026-04-22 11:36 | 43.09319 | 125.28567 | 33982 ft | 466 kts | 217° |
| 2026-04-22 11:36 | 43.06434 | 125.26548 | 34305 ft | 465 kts | 217° |
| 2026-04-22 11:36 | 43.03569 | 125.24543 | 34620 ft | 465 kts | 217° |
| 2026-04-22 11:37 | 43.00696 | 125.22535 | 34923 ft | 464 kts | 217° |
| 2026-04-22 11:37 | 42.97820 | 125.20549 | 35221 ft | 466 kts | 215° |
| 2026-04-22 11:37 | 42.94727 | 125.19028 | 35428 ft | 483 kts | 205° |
| 2026-04-22 11:37 | 42.91374 | 125.18283 | 35747 ft | 494 kts | 195° |
| 2026-04-22 11:38 | 42.87937 | 125.18054 | 36091 ft | 496 kts | 192° |
| 2026-04-22 11:38 | 42.84575 | 125.17492 | 36282 ft | 482 kts | 201° |
| 2026-04-22 11:38 | 42.78354 | 125.14720 | 36870 ft | 465 kts | 211° |
| 2026-04-22 11:39 | 42.75393 | 125.12997 | 37097 ft | 461 kts | 213° |
| 2026-04-22 11:39 | 42.72509 | 125.11154 | 37321 ft | 459 kts | 215° |
| 2026-04-22 11:39 | 42.69655 | 125.09238 | 37541 ft | 457 kts | 216° |
| 2026-04-22 11:39 | 42.66831 | 125.07297 | 37755 ft | 456 kts | 216° |
| 2026-04-22 11:40 | 42.64020 | 125.05342 | 37967 ft | 454 kts | 216° |
| 2026-04-22 11:40 | 42.61213 | 125.03385 | 38094 ft | 454 kts | 216° |
| 2026-04-22 11:40 | 42.55575 | 124.99449 | 38118 ft | 459 kts | 216° |
| 2026-04-22 11:41 | 42.49914 | 124.95518 | 38132 ft | 457 kts | 216° |
| 2026-04-22 11:41 | 42.44260 | 124.91594 | 38143 ft | 458 kts | 216° |
| 2026-04-22 11:42 | 42.38600 | 124.87675 | 38138 ft | 458 kts | 216° |
| 2026-04-22 11:42 | 42.32950 | 124.83772 | 38137 ft | 457 kts | 216° |
| 2026-04-22 11:43 | 42.26343 | 124.79217 | 38147 ft | 458 kts | 216° |
| 2026-04-22 11:43 | 42.21629 | 124.75974 | 38137 ft | 458 kts | 216° |
| 2026-04-22 11:44 | 42.15961 | 124.72083 | 38144 ft | 457 kts | 216° |
| 2026-04-22 11:44 | 42.10298 | 124.68201 | 38148 ft | 458 kts | 216° |
| 2026-04-22 11:45 | 42.04632 | 124.64326 | 38139 ft | 458 kts | 216° |
| 2026-04-22 11:45 | 41.98976 | 124.60435 | 38154 ft | 456 kts | 217° |
| 2026-04-22 11:46 | 41.93492 | 124.56351 | 38142 ft | 447 kts | 218° |
| 2026-04-22 11:46 | 41.88099 | 124.52237 | 38148 ft | 447 kts | 218° |
| 2026-04-22 11:47 | 41.82716 | 124.48125 | 38155 ft | 448 kts | 218° |
| 2026-04-22 11:47 | 41.77291 | 124.43995 | 38144 ft | 448 kts | 218° |
| 2026-04-22 11:48 | 41.71886 | 124.39891 | 38155 ft | 448 kts | 218° |
| 2026-04-22 11:48 | 41.66479 | 124.35792 | 38153 ft | 448 kts | 218° |
| 2026-04-22 11:49 | 41.61060 | 124.31693 | 38146 ft | 449 kts | 218° |
| 2026-04-22 11:49 | 41.55637 | 124.27599 | 38158 ft | 449 kts | 218° |
| 2026-04-22 11:50 | 41.50210 | 124.23510 | 38147 ft | 449 kts | 218° |
| 2026-04-22 11:50 | 41.44779 | 124.19426 | 38151 ft | 449 kts | 218° |
| 2026-04-22 11:51 | 41.39330 | 124.15385 | 38158 ft | 450 kts | 218° |
| 2026-04-22 11:51 | 41.33849 | 124.11392 | 38145 ft | 450 kts | 217° |
| 2026-04-22 11:52 | 41.28373 | 124.07424 | 38159 ft | 448 kts | 217° |
| 2026-04-22 11:52 | 41.22907 | 124.03475 | 38151 ft | 448 kts | 217° |
| 2026-04-22 11:53 | 41.17443 | 123.99533 | 38147 ft | 448 kts | 217° |
| 2026-04-22 11:53 | 41.11979 | 123.95598 | 38161 ft | 447 kts | 217° |
| 2026-04-22 11:54 | 41.06529 | 123.91682 | 38149 ft | 447 kts | 217° |
| 2026-04-22 11:54 | 41.01054 | 123.87753 | 38153 ft | 448 kts | 217° |
| 2026-04-22 11:55 | 40.95608 | 123.83856 | 38158 ft | 444 kts | 217° |
| 2026-04-22 11:55 | 40.90188 | 123.79983 | 38147 ft | 445 kts | 217° |
| 2026-04-22 11:56 | 40.84749 | 123.76095 | 38158 ft | 444 kts | 217° |
| 2026-04-22 11:56 | 40.79350 | 123.72155 | 38155 ft | 444 kts | 218° |
| 2026-04-22 11:57 | 40.73965 | 123.68201 | 38147 ft | 444 kts | 218° |
| 2026-04-22 11:57 | 40.68583 | 123.64251 | 38160 ft | 444 kts | 218° |
| 2026-04-22 11:58 | 40.63186 | 123.60297 | 38153 ft | 444 kts | 218° |
| 2026-04-22 11:58 | 40.57791 | 123.56350 | 38148 ft | 444 kts | 218° |
| 2026-04-22 11:59 | 40.52403 | 123.52412 | 38161 ft | 444 kts | 218° |
| 2026-04-22 11:59 | 40.47006 | 123.48475 | 38149 ft | 444 kts | 218° |
| 2026-04-22 12:00 | 40.41625 | 123.44556 | 38152 ft | 444 kts | 218° |
| 2026-04-22 12:00 | 40.36223 | 123.40628 | 38160 ft | 444 kts | 218° |
| 2026-04-22 12:01 | 40.29925 | 123.36059 | 38146 ft | 444 kts | 218° |
| 2026-04-22 12:01 | 40.25426 | 123.32801 | 38156 ft | 444 kts | 217° |
| 2026-04-22 12:02 | 40.20027 | 123.28898 | 38157 ft | 444 kts | 217° |
| 2026-04-22 12:02 | 40.14627 | 123.25001 | 38146 ft | 444 kts | 217° |
| 2026-04-22 12:03 | 40.09222 | 123.21108 | 38159 ft | 444 kts | 217° |
| 2026-04-22 12:03 | 40.03825 | 123.17210 | 38153 ft | 444 kts | 218° |
| 2026-04-22 12:04 | 39.98443 | 123.13297 | 38148 ft | 444 kts | 218° |
| 2026-04-22 12:04 | 39.93058 | 123.09381 | 38161 ft | 444 kts | 218° |
| 2026-04-22 12:05 | 39.87670 | 123.05470 | 38149 ft | 444 kts | 218° |
| 2026-04-22 12:05 | 39.82280 | 123.01565 | 38152 ft | 444 kts | 218° |
| 2026-04-22 12:06 | 39.76917 | 122.97693 | 38155 ft | 438 kts | 218° |
| 2026-04-22 12:06 | 39.71627 | 122.93876 | 38114 ft | 435 kts | 218° |
| 2026-04-22 12:07 | 39.66350 | 122.90066 | 38104 ft | 434 kts | 218° |
| 2026-04-22 12:07 | 39.61075 | 122.86267 | 38102 ft | 434 kts | 218° |
| 2026-04-22 12:08 | 39.55802 | 122.82479 | 38110 ft | 435 kts | 218° |
| 2026-04-22 12:08 | 39.50524 | 122.78696 | 38095 ft | 434 kts | 218° |
| 2026-04-22 12:09 | 39.45246 | 122.74917 | 38105 ft | 434 kts | 218° |
| 2026-04-22 12:09 | 39.39962 | 122.71142 | 38105 ft | 435 kts | 218° |
| 2026-04-22 12:10 | 39.33818 | 122.66764 | 38088 ft | 432 kts | 218° |
| 2026-04-22 12:10 | 39.29234 | 122.64022 | 38045 ft | 448 kts | 208° |
| 2026-04-22 12:11 | 39.23137 | 122.62040 | 38104 ft | 456 kts | 204° |
| 2026-04-22 12:11 | 39.16905 | 122.60437 | 38086 ft | 460 kts | 201° |
| 2026-04-22 12:12 | 39.10574 | 122.59194 | 38098 ft | 463 kts | 199° |
| 2026-04-22 12:12 | 39.03133 | 122.57933 | 38093 ft | 464 kts | 198° |
| 2026-04-22 12:13 | 38.97809 | 122.57064 | 38089 ft | 464 kts | 198° |
| 2026-04-22 12:13 | 38.91419 | 122.56027 | 38101 ft | 464 kts | 198° |
| 2026-04-22 12:14 | 38.85030 | 122.54991 | 38090 ft | 464 kts | 198° |
| 2026-04-22 12:14 | 38.78636 | 122.53956 | 38094 ft | 464 kts | 198° |
| 2026-04-22 12:15 | 38.71183 | 122.52750 | 38098 ft | 464 kts | 198° |
| 2026-04-22 12:15 | 38.65856 | 122.51891 | 38087 ft | 464 kts | 198° |
| 2026-04-22 12:16 | 38.59472 | 122.50859 | 38099 ft | 465 kts | 198° |
| 2026-04-22 12:16 | 38.53062 | 122.49825 | 38105 ft | 465 kts | 198° |
| 2026-04-22 12:17 | 38.46663 | 122.48797 | 38093 ft | 465 kts | 198° |
| 2026-04-22 12:17 | 38.39192 | 122.47601 | 38109 ft | 465 kts | 198° |
| 2026-04-22 12:18 | 38.33855 | 122.46748 | 38100 ft | 465 kts | 198° |
| 2026-04-22 12:18 | 38.30618 | 122.46386 | 38051 ft | 476 kts | 192° |
| 2026-04-22 12:18 | 38.27275 | 122.46775 | 38047 ft | 492 kts | 180° |
| 2026-04-22 12:19 | 38.23936 | 122.47990 | 38070 ft | 509 kts | 169° |
| 2026-04-22 12:19 | 38.20723 | 122.50008 | 38086 ft | 525 kts | 158° |
| 2026-04-22 12:19 | 38.17756 | 122.52781 | 38097 ft | 539 kts | 147° |